Cyrene, Missouri
Current Conditions -  °F | °C
As of 5:55 PM on Monday 20 Oct 2014 (Local Time) from KPPQ Reporting Station
Clear Clear  
Wind Chill: 66°   Ceiling: Unl
Heat Index: 66°   Visibility: 10mi
Dew Point: 43°   Wind: 8mph
Humidity: 44%   Direction: 310°NW
Pressure: 29.99"   Gusts: NA
Location:  39.321°N, 91.1912°W
Report Text: KPPQ 202255Z AUTO 31007KT 10SM CLR 19/06 A2999 RMK AO2 T01890063
Loading
Personal Weather Stations






























Interactive Weather Map
Tropical Storm Tracking
New forecast layout! Learn more

10-Day Weather Forecast

Advertisements
Track Severe Weather on mobile